Time;durP1;ratioP1;P1;durP2;ratioP2;P2;SDS_P1;SDS_P2;PMS_P1;PMS_P2;Temp;Humidity;BMP_temperature;BMP_pressure;BME280_temperature;BME280_humidity;BME280_pressure;Samples;Min_cycle;Max_cycle;Signal;HPM_P1;HPM_P2
2022/05/03 00:01:12;;;;;;;7.22;3.10;;;384.70;2329.60;;;;;;4962866;28;20616;-74
2022/05/03 00:03:51;;;;;;;8.00;3.83;;;384.70;2329.60;;;;;;4956333;28;20038;-76
2022/05/03 00:06:33;;;;;;;7.65;3.67;;;384.70;2329.60;;;;;;4956295;28;20030;-75
2022/05/03 00:09:05;;;;;;;9.95;3.50;;;384.70;2329.60;;;;;;4973553;28;20062;-75
2022/05/03 00:11:50;;;;;;;8.07;4.25;;;384.70;2329.60;;;;;;4973652;28;20042;-75
2022/05/03 00:14:44;;;;;;;6.57;3.53;;;384.70;2329.60;;;;;;4973736;28;20089;-75
2022/05/03 00:17:14;;;;;;;6.47;3.60;;;384.70;2329.60;;;;;;4973709;28;20019;-75
2022/05/03 00:19:43;;;;;;;6.72;3.83;;;384.70;2329.60;;;;;;4956022;28;20485;-75
2022/05/03 00:22:11;;;;;;;6.60;3.47;;;384.80;2329.60;;;;;;4973490;28;20041;-74
2022/05/03 00:24:37;;;;;;;9.80;3.72;;;384.80;2329.60;;;;;;4973413;28;20015;-74
2022/05/03 00:27:03;;;;;;;6.75;3.63;;;384.80;2329.60;;;;;;4971881;28;20433;-74
2022/05/03 00:29:29;;;;;;;6.07;3.10;;;384.80;2329.60;;;;;;4955780;28;20093;-75
2022/05/03 00:31:56;;;;;;;6.07;3.72;;;384.90;2329.60;;;;;;4955887;28;20050;-75
2022/05/03 00:34:23;;;;;;;5.82;3.50;;;384.90;2278.40;;;;;;4973163;28;20142;-75
2022/05/03 00:36:48;;;;;;;8.30;4.40;;;384.90;2252.80;;;;;;4955797;28;20027;-75
2022/05/03 00:39:15;;;;;;;9.15;4.05;;;384.90;2278.40;;;;;;4955665;28;20042;-75
2022/05/03 00:42:16;;;;;;;8.98;4.00;;;384.90;2252.80;;;;;;4973296;28;20038;-74
2022/05/03 00:45:13;;;;;;;5.90;3.35;;;384.90;2252.80;;;;;;4955743;28;20066;-74
2022/05/03 00:47:43;;;;;;;6.72;3.67;;;409.60;2252.80;;;;;;4973402;28;20019;-75
2022/05/03 00:50:30;;;;;;;8.50;3.45;;;384.90;2201.60;;;;;;4973047;28;20532;-75
2022/05/03 00:53:10;;;;;;;7.85;3.20;;;384.90;2201.60;;;;;;4965735;28;20042;-75
2022/05/03 00:56:00;;;;;;;4.70;3.15;;;409.60;2201.60;;;;;;4973166;28;20033;-74
2022/05/03 00:58:52;;;;;;;11.00;3.58;;;409.60;2176.00;;;;;;4973108;28;20035;-75
2022/05/03 01:01:53;;;;;;;5.32;3.08;;;409.60;2150.40;;;;;;4973228;28;20034;-75
2022/05/03 01:04:27;;;;;;;5.82;2.72;;;409.60;2124.80;;;;;;4973034;28;20031;-75
2022/05/03 01:07:27;;;;;;;4.82;3.08;;;409.60;2124.80;;;;;;4955504;28;20186;-78
2022/05/03 01:10:06;;;;;;;7.55;3.10;;;409.70;2099.20;;;;;;4955695;28;20030;-77
2022/05/03 01:12:35;;;;;;;6.47;3.17;;;409.70;2124.80;;;;;;4956089;28;20035;-77
2022/05/03 01:15:08;;;;;;;12.27;3.88;;;409.70;2099.20;;;;;;4959445;28;20050;-77
2022/05/03 01:17:44;;;;;;;8.65;3.80;;;409.70;2099.20;;;;;;4976885;28;20051;-77
2022/05/03 01:20:14;;;;;;;6.78;3.13;;;409.70;2099.20;;;;;;4959490;28;20085;-78
2022/05/03 01:23:03;;;;;;;7.53;4.22;;;409.70;2150.40;;;;;;4959165;28;20476;-77
2022/05/03 01:25:45;;;;;;;7.97;3.70;;;409.70;2124.80;;;;;;4959528;28;20497;-77
2022/05/03 01:28:30;;;;;;;9.30;3.58;;;409.70;2124.80;;;;;;4958377;28;20035;-77
2022/05/03 01:31:05;;;;;;;8.95;3.10;;;409.60;2278.40;;;;;;4959117;28;20046;-77
2022/05/03 01:33:40;;;;;;;8.43;3.53;;;409.60;2304.00;;;;;;4959037;28;20027;-78
2022/05/03 01:36:08;;;;;;;8.70;4.43;;;384.90;2304.00;;;;;;4976424;28;20106;-77
2022/05/03 01:38:50;;;;;;;4.82;3.65;;;384.90;2329.60;;;;;;4976216;28;20026;-77
2022/05/03 01:41:48;;;;;;;6.93;3.90;;;409.60;2278.40;;;;;;4976470;28;20027;-77
2022/05/03 01:44:36;;;;;;;12.98;4.15;;;409.60;2278.40;;;;;;4975764;28;20037;-77
2022/05/03 01:47:23;;;;;;;6.65;3.35;;;409.60;2329.60;;;;;;4958913;28;20023;-77
2022/05/03 01:50:33;;;;;;;8.27;3.30;;;409.60;2355.20;;;;;;4975995;28;20031;-77
2022/05/03 01:53:10;;;;;;;8.23;4.00;;;409.60;2355.20;;;;;;4897661;29;20490;-77
2022/05/03 01:55:57;;;;;;;5.90;3.72;;;384.90;2329.60;;;;;;4897499;29;20088;-77
2022/05/03 01:58:50;;;;;;;7.30;3.38;;;384.90;2329.60;;;;;;4897759;29;20037;-77
2022/05/03 02:01:27;;;;;;;7.13;3.85;;;384.90;2329.60;;;;;;4896813;29;20225;-77
2022/05/03 02:04:06;;;;;;;8.40;4.07;;;384.90;2329.60;;;;;;4896617;29;20126;-77
2022/05/03 02:07:06;;;;;;;8.50;4.43;;;384.90;2329.60;;;;;;4896386;29;20025;-77
2022/05/03 02:10:04;;;;;;;9.55;5.10;;;384.80;2329.60;;;;;;4880839;29;20116;-77
2022/05/03 02:12:30;;;;;;;7.55;4.28;;;384.70;2329.60;;;;;;4896666;29;20499;-78
2022/05/03 02:15:07;;;;;;;9.18;3.58;;;384.90;2329.60;;;;;;4896410;29;20392;-78
2022/05/03 02:17:52;;;;;;;5.15;3.65;;;384.70;2329.60;;;;;;4896304;29;20055;-78
2022/05/03 02:20:44;;;;;;;8.70;4.20;;;384.70;2329.60;;;;;;4896408;29;20037;-77
2022/05/03 02:23:41;;;;;;;5.25;4.00;;;384.60;2329.60;;;;;;4903865;28;20066;-78
2022/05/03 02:26:30;;;;;;;8.38;4.05;;;384.60;2329.60;;;;;;4974334;28;20034;-77
2022/05/03 02:28:59;;;;;;;6.90;4.10;;;384.60;2329.60;;;;;;4956997;28;20477;-77
2022/05/03 02:31:42;;;;;;;7.05;3.80;;;384.60;2329.60;;;;;;4957173;28;20050;-77
2022/05/03 02:34:30;;;;;;;7.22;4.15;;;384.60;2329.60;;;;;;4957074;28;20497;-77
2022/05/03 02:37:10;;;;;;;7.93;4.70;;;384.60;2329.60;;;;;;4974139;28;20481;-78
2022/05/03 02:39:42;;;;;;;6.38;4.00;;;384.60;2329.60;;;;;;4974169;28;20019;-78
2022/05/03 02:42:09;;;;;;;7.88;4.90;;;384.50;2329.60;;;;;;4957873;28;20513;-82
2022/05/03 02:44:38;;;;;;;7.97;4.65;;;384.60;2329.60;;;;;;4957720;28;20485;-83
2022/05/03 02:47:23;;;;;;;9.48;4.13;;;384.50;2329.60;;;;;;4975139;28;20109;-82
2022/05/03 02:49:52;;;;;;;11.38;4.40;;;384.50;2329.60;;;;;;4957764;28;20038;-81
2022/05/03 02:52:40;;;;;;;12.15;5.22;;;384.50;2329.60;;;;;;4957749;28;20102;-83
2022/05/03 02:55:43;;;;;;;11.20;4.45;;;384.60;2329.60;;;;;;4975035;28;20043;-83
2022/05/03 03:01:49;;;;;;;10.85;5.38;;;384.50;2329.60;;;;;;5109834;27;20399;-81
2022/05/03 03:04:24;;;;;;;8.20;4.20;;;384.60;2329.60;;;;;;5110001;28;20039;-81
2022/05/03 03:06:54;;;;;;;9.68;5.07;;;384.50;2329.60;;;;;;5109698;28;20050;-82
2022/05/03 03:09:50;;;;;;;7.32;4.47;;;384.40;2329.60;;;;;;5109780;28;20026;-82
2022/05/03 03:12:54;;;;;;;10.93;5.05;;;384.30;2329.60;;;;;;5101508;28;20491;-82
2022/05/03 03:15:26;;;;;;;11.98;5.60;;;384.40;2329.60;;;;;;5109884;28;20115;-82
2022/05/03 03:17:54;;;;;;;10.38;4.72;;;384.30;2329.60;;;;;;5109414;28;20046;-81
2022/05/03 03:20:25;;;;;;;12.25;4.90;;;384.30;2329.60;;;;;;5110401;28;20031;-81
2022/05/03 03:22:51;;;;;;;9.65;4.90;;;384.30;2329.60;;;;;;5109400;28;20031;-81
2022/05/03 03:25:18;;;;;;;9.07;4.75;;;384.20;2329.60;;;;;;5110682;28;20024;-80
2022/05/03 03:27:47;;;;;;;14.35;4.82;;;384.20;2329.60;;;;;;5109064;28;20027;-81
2022/05/03 03:30:15;;;;;;;11.32;5.90;;;384.20;2329.60;;;;;;5110076;28;20020;-81
2022/05/03 03:32:47;;;;;;;11.38;5.32;;;384.20;2329.60;;;;;;5110510;28;20097;-82
2022/05/03 03:35:15;;;;;;;12.65;5.32;;;384.10;2329.60;;;;;;5109836;28;20019;-81
2022/05/03 03:37:46;;;;;;;9.25;4.68;;;384.00;2329.60;;;;;;5109108;28;20152;-82
2022/05/03 03:40:14;;;;;;;13.48;4.80;;;384.00;2329.60;;;;;;5108900;28;20028;-81
2022/05/03 03:42:45;;;;;;;9.48;4.75;;;384.00;2329.60;;;;;;5108969;28;20107;-82
2022/05/03 03:45:13;;;;;;;9.68;5.18;;;384.00;2329.60;;;;;;5110287;28;20103;-81
2022/05/03 03:47:40;;;;;;;16.02;5.85;;;384.00;2329.60;;;;;;5108990;28;20475;-81
2022/05/03 03:50:07;;;;;;;11.65;5.88;;;359.30;2329.60;;;;;;5108910;28;20039;-80
2022/05/03 03:52:35;;;;;;;12.50;5.45;;;384.00;2329.60;;;;;;5109727;28;20475;-81
2022/05/03 03:55:02;;;;;;;12.85;5.93;;;359.20;2329.60;;;;;;5110106;28;20057;-78
2022/05/03 03:57:29;;;;;;;13.93;6.22;;;359.20;2329.60;;;;;;5107920;28;20046;-78
2022/05/03 03:59:55;;;;;;;14.52;6.10;;;359.30;2329.60;;;;;;5108650;28;20563;-78
2022/05/03 04:02:22;;;;;;;10.40;5.32;;;359.20;2329.60;;;;;;5109545;28;20016;-79
2022/05/03 04:04:49;;;;;;;12.90;5.05;;;359.20;2329.60;;;;;;5109396;28;20035;-81
2022/05/03 04:07:15;;;;;;;10.70;5.28;;;359.10;2329.60;;;;;;5108216;28;20119;-77
2022/05/03 04:09:41;;;;;;;11.88;5.63;;;359.10;2329.60;;;;;;5106463;28;20126;-77
2022/05/03 04:12:07;;;;;;;9.43;4.70;;;359.20;2329.60;;;;;;5095679;28;20028;-78
2022/05/03 04:14:33;;;;;;;9.60;5.25;;;359.20;2329.60;;;;;;5093389;28;20032;-77
2022/05/03 04:17:00;;;;;;;13.23;5.32;;;359.30;2329.60;;;;;;5095411;28;20399;-78
2022/05/03 04:19:26;;;;;;;9.43;5.28;;;359.30;2329.60;;;;;;5093743;28;20093;-78
2022/05/03 04:21:52;;;;;;;11.85;6.03;;;359.30;2329.60;;;;;;5095750;28;20458;-77
2022/05/03 04:24:17;;;;;;;12.32;5.07;;;359.30;2329.60;;;;;;5094788;28;20031;-78
2022/05/03 04:26:43;;;;;;;10.10;5.35;;;384.00;2329.60;;;;;;5094825;28;20046;-77
2022/05/03 04:29:10;;;;;;;20.73;6.60;;;384.00;2329.60;;;;;;5094949;28;20031;-78
2022/05/03 04:31:36;;;;;;;14.93;5.95;;;359.30;2329.60;;;;;;5093670;28;20028;-78
2022/05/03 04:34:03;;;;;;;10.32;5.47;;;359.30;2329.60;;;;;;5093732;28;20032;-77
2022/05/03 04:36:30;;;;;;;14.35;5.03;;;384.00;2329.60;;;;;;5094846;28;20107;-78
2022/05/03 04:38:56;;;;;;;14.40;5.30;;;384.00;2329.60;;;;;;5093547;28;20093;-78
2022/05/03 04:41:23;;;;;;;13.48;5.55;;;384.10;2329.60;;;;;;5094749;28;20061;-78
2022/05/03 04:43:49;;;;;;;12.73;5.15;;;384.20;2329.60;;;;;;5093895;28;20024;-78
2022/05/03 04:46:15;;;;;;;20.05;7.13;;;384.10;2329.60;;;;;;5094745;28;20024;-78
2022/05/03 04:48:41;;;;;;;13.25;5.40;;;384.20;2329.60;;;;;;5093585;28;20024;-78
2022/05/03 04:51:25;;;;;;;8.10;4.95;;;384.10;2329.60;;;;;;5094448;28;20024;-77
2022/05/03 04:53:51;;;;;;;12.07;5.25;;;384.20;2329.60;;;;;;5093182;28;20123;-78
2022/05/03 04:56:17;;;;;;;10.30;4.88;;;384.30;2329.60;;;;;;5093550;28;20024;-78
2022/05/03 04:58:43;;;;;;;7.50;5.00;;;384.30;2329.60;;;;;;5092750;28;20375;-78
2022/05/03 05:01:09;;;;;;;7.78;4.85;;;384.20;2329.60;;;;;;5094587;28;20032;-78
2022/05/03 05:03:34;;;;;;;8.82;4.45;;;384.20;2329.60;;;;;;5093853;28;20034;-77
2022/05/03 05:06:00;;;;;;;9.57;4.68;;;384.30;2329.60;;;;;;5094412;28;20032;-78
2022/05/03 05:08:26;;;;;;;9.85;4.93;;;384.30;2329.60;;;;;;5092839;28;20024;-77
2022/05/03 05:10:51;;;;;;;7.43;5.25;;;384.40;2329.60;;;;;;5092755;28;20066;-78
2022/05/03 05:13:17;;;;;;;20.08;6.35;;;384.40;2329.60;;;;;;5093236;28;20494;-79
2022/05/03 05:15:43;;;;;;;7.88;5.32;;;384.40;2329.60;;;;;;5092647;28;20035;-80
2022/05/03 05:18:09;;;;;;;10.45;5.25;;;384.50;2329.60;;;;;;5093330;28;20119;-82
2022/05/03 05:20:34;;;;;;;8.07;5.28;;;384.50;2329.60;;;;;;5094819;28;20036;-82
2022/05/03 05:23:00;;;;;;;8.35;4.45;;;384.60;2329.60;;;;;;5092382;28;20020;-78
2022/05/03 05:25:26;;;;;;;6.20;4.40;;;384.70;2329.60;;;;;;5092560;28;20035;-78
2022/05/03 05:27:52;;;;;;;12.05;5.45;;;384.80;2329.60;;;;;;5092638;28;20396;-78
2022/05/03 05:30:18;;;;;;;81.53;11.15;;;384.90;2329.60;;;;;;5094174;28;20024;-78
2022/05/03 05:32:43;;;;;;;10.50;4.43;;;384.90;2329.60;;;;;;5092222;28;20237;-82
2022/05/03 05:35:10;;;;;;;6.97;3.83;;;409.60;2355.20;;;;;;5092923;28;20035;-78
2022/05/03 05:37:36;;;;;;;10.75;4.20;;;409.60;2355.20;;;;;;5093075;28;20499;-80
2022/05/03 05:40:02;;;;;;;6.80;4.07;;;409.70;2355.20;;;;;;5092162;28;20074;-79
2022/05/03 05:42:27;;;;;;;5.68;3.60;;;409.70;2355.20;;;;;;5092654;28;20074;-78
2022/05/03 05:44:53;;;;;;;9.93;3.85;;;409.80;2355.20;;;;;;5092027;28;20085;-78
2022/05/03 05:47:20;;;;;;;7.90;3.95;;;409.80;2355.20;;;;;;5093421;28;20020;-78
2022/05/03 05:49:45;;;;;;;8.93;4.53;;;409.90;2355.20;;;;;;5091918;28;20028;-79
2022/05/03 05:54:55;;;;;;;8.10;4.45;;;410.00;2355.20;;;;;;5093962;28;20035;-77
2022/05/03 05:57:21;;;;;;;6.82;3.70;;;410.10;2355.20;;;;;;5093548;28;20027;-77
2022/05/03 05:59:47;;;;;;;8.98;3.65;;;410.00;2355.20;;;;;;5092719;28;20055;-77
2022/05/03 06:02:14;;;;;;;5.20;3.45;;;410.20;2355.20;;;;;;5091917;28;20028;-78
2022/05/03 06:04:40;;;;;;;6.13;4.15;;;410.20;2355.20;;;;;;5091491;28;20028;-78
2022/05/03 06:07:05;;;;;;;11.15;3.70;;;410.20;2355.20;;;;;;5091857;28;20089;-78
2022/05/03 06:09:33;;;;;;;6.75;3.30;;;410.40;2355.20;;;;;;5091921;28;20028;-78
2022/05/03 06:11:58;;;;;;;6.18;4.15;;;410.50;2355.20;;;;;;5093334;28;20028;-77
2022/05/03 06:14:24;;;;;;;6.22;3.22;;;410.50;2355.20;;;;;;5090543;28;20529;-77
2022/05/03 06:16:52;;;;;;;9.48;3.30;;;410.50;2355.20;;;;;;5093026;28;20024;-78
2022/05/03 06:19:18;;;;;;;7.65;3.53;;;435.30;2329.60;;;;;;5090715;28;20047;-78
2022/05/03 06:21:43;;;;;;;4.40;3.00;;;435.30;2278.40;;;;;;5093034;28;20101;-79
2022/05/03 06:24:10;;;;;;;10.70;3.13;;;435.30;2150.40;;;;;;5091884;28;20036;-79
2022/05/03 06:26:36;;;;;;;8.63;3.00;;;435.40;2227.20;;;;;;5092089;28;20024;-83
2022/05/03 06:29:06;;;;;;;9.57;3.63;;;435.40;2099.20;;;;;;5092097;28;20036;-78
2022/05/03 06:31:33;;;;;;;6.80;2.80;;;435.50;2201.60;;;;;;5091482;28;20042;-78
2022/05/03 06:34:01;;;;;;;4.65;2.67;;;435.50;2124.80;;;;;;5091508;28;20031;-78
2022/05/03 06:36:26;;;;;;;14.00;4.15;;;435.50;1971.20;;;;;;5091562;28;20077;-78
2022/05/03 06:38:52;;;;;;;7.93;3.10;;;435.60;1945.60;;;;;;5091560;28;20020;-80
2022/05/03 06:41:18;;;;;;;9.43;3.47;;;435.60;1971.20;;;;;;5091410;28;20031;-79
2022/05/03 06:43:44;;;;;;;10.13;2.63;;;435.60;1920.00;;;;;;5091315;28;20024;-77
2022/05/03 06:46:11;;;;;;;10.05;3.08;;;435.60;1920.00;;;;;;5091421;28;20039;-77
2022/05/03 06:48:37;;;;;;;11.00;3.10;;;435.70;1945.60;;;;;;5091366;28;20387;-78
2022/05/03 06:51:03;;;;;;;11.73;2.88;;;435.70;1894.40;;;;;;5091559;28;20020;-78
2022/05/03 06:53:29;;;;;;;6.50;3.50;;;435.70;1894.40;;;;;;5091018;28;20032;-78
2022/05/03 06:55:55;;;;;;;6.35;3.50;;;435.80;1945.60;;;;;;5090888;28;20031;-77
2022/05/03 06:58:21;;;;;;;6.15;3.35;;;435.80;1920.00;;;;;;5091007;28;20035;-77
2022/05/03 07:00:46;;;;;;;8.02;2.97;;;435.90;1996.80;;;;;;5092063;28;20052;-77
2022/05/03 07:03:12;;;;;;;6.80;3.65;;;435.90;2073.60;;;;;;5090821;28;20111;-88
2022/05/03 07:05:39;;;;;;;8.68;3.25;;;436.00;2099.20;;;;;;5091741;28;20031;-78
2022/05/03 07:08:08;;;;;;;6.80;3.47;;;460.80;2099.20;;;;;;5091454;28;20078;-77
2022/05/03 07:10:34;;;;;;;5.43;3.20;;;460.90;1945.60;;;;;;5090694;28;20032;-79
2022/05/03 07:13:00;;;;;;;13.43;3.78;;;461.00;1996.80;;;;;;5091069;28;20148;-77
2022/05/03 07:15:27;;;;;;;5.80;3.20;;;461.00;2073.60;;;;;;5092491;28;20030;-80
2022/05/03 07:23:23;;;;;;;8.73;3.03;;;461.20;1894.40;;;;;;5092928;28;20130;-78
2022/05/03 07:25:50;;;;;;;10.30;2.25;;;461.30;1868.80;;;;;;5091466;28;20043;-80
2022/05/03 07:28:16;;;;;;;7.05;2.70;;;461.40;1868.80;;;;;;5091271;28;20035;-79
2022/05/03 07:30:42;;;;;;;6.25;3.03;;;486.40;1817.60;;;;;;5091294;28;20028;-80
2022/05/03 07:33:08;;;;;;;6.32;2.70;;;486.60;1920.00;;;;;;5091310;28;20395;-79
2022/05/03 07:35:35;;;;;;;6.60;2.38;;;486.50;1664.00;;;;;;5091169;28;20020;-78
2022/05/03 07:38:01;;;;;;;9.48;3.17;;;486.60;1664.00;;;;;;5092021;28;20032;-79
2022/05/03 07:40:28;;;;;;;5.07;2.13;;;486.60;1612.80;;;;;;5090645;28;20028;-78
2022/05/03 07:42:54;;;;;;;3.55;2.17;;;486.50;1638.40;;;;;;5091326;28;20020;-79
2022/05/03 07:45:20;;;;;;;7.70;2.47;;;486.50;1638.40;;;;;;5090244;28;20051;-78
2022/05/03 07:47:45;;;;;;;6.63;2.50;;;486.70;1587.20;;;;;;5094516;28;20016;-78
2022/05/03 07:50:11;;;;;;;5.72;2.55;;;486.90;1612.80;;;;;;5094134;28;20035;-78
2022/05/03 07:52:38;;;;;;;6.05;2.30;;;487.10;1561.60;;;;;;5094768;28;20040;-78
2022/05/03 07:55:06;;;;;;;4.80;2.08;;;487.30;1612.80;;;;;;5094258;28;20027;-78
2022/05/03 07:57:32;;;;;;;7.00;2.45;;;487.30;1510.40;;;;;;5094500;28;20024;-78
2022/05/03 07:59:58;;;;;;;5.22;1.88;;;512.10;1484.80;;;;;;5095302;28;20584;-78
2022/05/03 08:02:25;;;;;;;133.40;24.25;;;512.20;1433.60;;;;;;5094649;28;20055;-79
2022/05/03 08:04:52;;;;;;;7.60;2.28;;;512.20;1433.60;;;;;;5094537;28;20039;-79
2022/05/03 08:07:20;;;;;;;9.07;2.10;;;512.30;1382.40;;;;;;5095677;28;20028;-79
2022/05/03 08:09:47;;;;;;;3.35;1.83;;;512.40;1510.40;;;;;;5094697;28;20024;-80
2022/05/03 08:12:12;;;;;;;6.53;2.22;;;512.50;1408.00;;;;;;5094100;28;20035;-76
2022/05/03 08:14:39;;;;;;;8.00;2.78;;;512.60;1459.20;;;;;;5095681;28;20367;-78
2022/05/03 08:17:06;;;;;;;5.68;2.20;;;512.60;1459.20;;;;;;5095159;28;20068;-78
2022/05/03 08:19:31;;;;;;;4.07;2.22;;;512.70;1459.20;;;;;;5093231;28;20039;-78
2022/05/03 08:21:57;;;;;;;6.28;2.13;;;512.70;1433.60;;;;;;5094735;28;20353;-77
2022/05/03 08:24:26;;;;;;;26.00;4.43;;;512.70;1433.60;;;;;;5093512;28;20020;-78
2022/05/03 08:26:53;;;;;;;5.13;2.75;;;512.60;1433.60;;;;;;5094939;28;20017;-77
2022/05/03 08:29:19;;;;;;;6.22;2.05;;;512.40;1459.20;;;;;;5094809;28;20032;-78
2022/05/03 08:31:45;;;;;;;7.72;2.35;;;512.30;1484.80;;;;;;5093994;28;20101;-79
2022/05/03 08:34:12;;;;;;;11.52;2.55;;;512.20;1484.80;;;;;;5094074;28;20031;-79
2022/05/03 08:36:37;;;;;;;4.65;2.40;;;512.10;1382.40;;;;;;5094219;28;20392;-79
2022/05/03 08:42:07;;;;;;;8.02;2.00;;;512.00;1356.80;;;;;;5095314;28;20039;-79
2022/05/03 08:44:34;;;;;;;5.07;2.00;;;512.20;1408.00;;;;;;5094297;28;20040;-79
2022/05/03 08:47:02;;;;;;;2.67;1.67;;;512.40;1382.40;;;;;;5094627;28;20133;-78
2022/05/03 08:49:36;;;;;;;3.72;1.60;;;512.30;1331.20;;;;;;5093771;28;20020;-78
2022/05/03 08:52:03;;;;;;;4.78;1.90;;;512.40;1408.00;;;;;;5094761;28;20021;-78
2022/05/03 08:54:29;;;;;;;6.20;2.70;;;512.50;1408.00;;;;;;5093339;28;20467;-79
2022/05/03 08:56:55;;;;;;;8.48;2.30;;;512.40;1382.40;;;;;;5094786;28;20031;-78
2022/05/03 08:59:23;;;;;;;7.15;2.40;;;512.50;1382.40;;;;;;5093065;28;20055;-78
2022/05/03 09:01:48;;;;;;;5.25;2.00;;;512.50;1459.20;;;;;;5093503;28;20073;-78
2022/05/03 09:04:15;;;;;;;7.40;2.30;;;512.40;1408.00;;;;;;5093027;28;20028;-78
2022/05/03 09:06:45;;;;;;;4.30;2.22;;;512.40;1408.00;;;;;;5093347;28;20032;-78
2022/05/03 09:09:16;;;;;;;7.35;2.45;;;512.40;1382.40;;;;;;5094580;28;20020;-79
2022/05/03 09:11:51;;;;;;;6.95;2.40;;;512.30;1331.20;;;;;;5093472;28;20032;-78
2022/05/03 09:14:39;;;;;;;6.75;2.20;;;512.30;1331.20;;;;;;5092786;28;20110;-78
2022/05/03 09:17:06;;;;;;;5.93;1.77;;;512.40;1356.80;;;;;;5091882;28;20494;-78
2022/05/03 09:19:33;;;;;;;6.18;3.17;;;512.40;1305.60;;;;;;5093766;28;20032;-78
2022/05/03 09:24:57;;;;;;;7.25;2.30;;;512.70;1408.00;;;;;;5094086;28;20209;-77
2022/05/03 09:27:24;;;;;;;7.00;2.38;;;512.70;1331.20;;;;;;5092554;28;20053;-77
2022/05/03 09:30:09;;;;;;;3.90;2.20;;;512.90;1356.80;;;;;;5092355;28;20042;-78
2022/05/03 09:32:43;;;;;;;5.00;2.25;;;512.90;1305.60;;;;;;5092426;28;20020;-78
2022/05/03 09:35:35;;;;;;;5.25;2.33;;;537.70;1382.40;;;;;;5092039;28;20024;-78
2022/05/03 09:38:03;;;;;;;10.40;2.95;;;512.90;1305.60;;;;;;5079053;28;20028;-77
2022/05/03 09:40:49;;;;;;;8.32;2.38;;;512.90;1382.40;;;;;;5092871;28;20032;-78
2022/05/03 09:43:18;;;;;;;5.07;2.28;;;512.90;1356.80;;;;;;5092066;28;20478;-77
2022/05/03 09:45:44;;;;;;;5.88;2.30;;;512.70;1382.40;;;;;;5090816;28;20034;-78
2022/05/03 09:48:10;;;;;;;7.13;2.42;;;512.90;1331.20;;;;;;5092250;28;20020;-78
2022/05/03 09:50:43;;;;;;;6.03;2.40;;;512.90;1331.20;;;;;;5093620;28;20112;-77
2022/05/03 09:53:21;;;;;;;4.55;2.42;;;537.60;1331.20;;;;;;5091158;28;20476;-78
2022/05/03 09:55:48;;;;;;;4.90;2.25;;;512.90;1280.00;;;;;;5071857;28;20039;-78
2022/05/03 09:58:15;;;;;;;4.20;1.92;;;537.60;1305.60;;;;;;5090555;28;20016;-77
2022/05/03 10:00:44;;;;;;;5.38;2.60;;;537.70;1305.60;;;;;;5092494;28;20059;-77
2022/05/03 10:03:11;;;;;;;6.35;2.92;;;537.80;1280.00;;;;;;5093541;28;20053;-80
2022/05/03 10:05:38;;;;;;;5.43;2.50;;;537.80;1280.00;;;;;;5091998;28;20020;-79
2022/05/03 10:08:05;;;;;;;11.25;3.40;;;538.20;1331.20;;;;;;5092022;28;20027;-79
2022/05/03 10:10:32;;;;;;;8.68;5.55;;;538.40;1331.20;;;;;;5090594;28;20020;-77
2022/05/03 10:12:58;;;;;;;4.70;2.63;;;563.40;1408.00;;;;;;5091445;28;20019;-77
2022/05/03 10:21:12;;;;;;;6.00;2.17;;;563.50;1356.80;;;;;;5072660;28;20063;-78
2022/05/03 10:23:38;;;;;;;5.30;3.03;;;563.40;1280.00;;;;;;5088505;28;20111;-77
2022/05/03 10:26:11;;;;;;;6.05;2.45;;;563.60;1254.40;;;;;;5072688;28;20096;-79
2022/05/03 10:29:05;;;;;;;8.70;3.53;;;563.90;1305.60;;;;;;5090706;28;20119;-77
2022/05/03 10:31:31;;;;;;;10.05;3.58;;;563.70;1280.00;;;;;;5091289;28;20110;-77
2022/05/03 10:34:02;;;;;;;4.88;2.47;;;563.30;1305.60;;;;;;5092131;28;20047;-77
2022/05/03 10:36:34;;;;;;;11.88;3.60;;;563.30;1305.60;;;;;;5092637;28;20017;-77
2022/05/03 10:39:18;;;;;;;5.90;3.00;;;563.40;1331.20;;;;;;5092663;28;20516;-79
2022/05/03 10:42:11;;;;;;;8.60;3.08;;;563.30;1433.60;;;;;;5092588;28;20046;-77
2022/05/03 10:45:00;;;;;;;10.15;3.00;;;563.30;1433.60;;;;;;5084790;28;20028;-77
2022/05/03 10:47:45;;;;;;;10.23;4.35;;;538.50;1331.20;;;;;;5091376;28;20080;-78
2022/05/03 10:50:15;;;;;;;8.27;3.28;;;563.40;1356.80;;;;;;5091045;28;20031;-77
2022/05/03 10:52:45;;;;;;;7.25;3.33;;;563.40;1382.40;;;;;;5091096;28;20165;-78
2022/05/03 10:55:12;;;;;;;7.53;3.03;;;563.40;1331.20;;;;;;5091226;28;20050;-77
2022/05/03 10:58:15;;;;;;;3.83;2.58;;;563.40;1382.40;;;;;;5090780;28;20038;-77
2022/05/03 11:01:05;;;;;;;8.07;2.90;;;563.40;1408.00;;;;;;5090391;28;20051;-77
2022/05/03 11:03:36;;;;;;;8.45;2.95;;;563.30;1356.80;;;;;;5089122;28;21492;-77
2022/05/03 11:06:22;;;;;;;8.20;3.15;;;538.50;1331.20;;;;;;5086896;28;20120;-77
2022/05/03 11:09:09;;;;;;;6.22;2.88;;;563.30;1305.60;;;;;;5070391;28;20024;-78
2022/05/03 11:14:15;;;;;;;5.97;3.40;;;563.60;1356.80;;;;;;5090687;28;20034;-76
2022/05/03 11:16:42;;;;;;;5.97;3.65;;;564.00;1305.60;;;;;;5089401;28;20035;-76
2022/05/03 11:19:18;;;;;;;4.93;3.28;;;589.00;1305.60;;;;;;5069931;28;20050;-77
2022/05/03 11:21:46;;;;;;;8.73;3.45;;;589.10;1280.00;;;;;;5081573;28;20035;-77
2022/05/03 11:24:23;;;;;;;6.13;2.80;;;588.90;1305.60;;;;;;5078680;28;20027;-76
2022/05/03 11:26:53;;;;;;;8.45;3.30;;;589.10;1305.60;;;;;;5077293;28;20016;-77
2022/05/03 11:29:20;;;;;;;8.25;3.55;;;589.40;1254.40;;;;;;5075535;28;20040;-77
2022/05/03 11:31:51;;;;;;;8.07;2.97;;;589.30;1280.00;;;;;;5076002;28;20012;-77
2022/05/03 11:34:18;;;;;;;7.55;3.13;;;589.10;1305.60;;;;;;5079597;28;20141;-76
2022/05/03 11:36:49;;;;;;;6.53;3.17;;;588.80;1331.20;;;;;;5074161;28;20016;-76
2022/05/03 11:39:16;;;;;;;9.65;3.03;;;563.90;1356.80;;;;;;5080874;28;20031;-77
2022/05/03 11:41:42;;;;;;;10.48;3.03;;;563.60;1305.60;;;;;;5092861;28;20028;-76
2022/05/03 11:44:08;;;;;;;4.50;2.45;;;563.50;1331.20;;;;;;5092957;28;20123;-77
2022/05/03 11:46:34;;;;;;;7.18;3.67;;;563.50;1331.20;;;;;;5091606;28;20028;-76
2022/05/03 11:49:03;;;;;;;4.63;2.55;;;563.40;1331.20;;;;;;5094213;28;20102;-77
2022/05/03 11:57:35;;;;;;;6.40;3.15;;;563.50;1280.00;;;;;;5094501;28;20019;-78
2022/05/03 12:00:03;;;;;;;9.93;2.90;;;563.40;1331.20;;;;;;5088292;28;20404;-78
2022/05/03 12:02:32;;;;;;;4.25;2.70;;;538.50;1382.40;;;;;;5092665;28;20097;-79
2022/05/03 12:05:19;;;;;;;6.60;2.65;;;538.50;1382.40;;;;;;5091125;28;20036;-78
2022/05/03 12:07:52;;;;;;;8.43;3.30;;;538.50;1408.00;;;;;;5107502;28;20020;-78
2022/05/03 12:10:23;;;;;;;5.70;2.63;;;538.50;1331.20;;;;;;5095164;28;20020;-79
2022/05/03 12:13:12;;;;;;;11.30;3.88;;;538.40;1356.80;;;;;;5091210;28;20032;-78
2022/05/03 12:16:01;;;;;;;5.95;3.90;;;538.40;1356.80;;;;;;5092578;28;20085;-80
2022/05/03 12:18:32;;;;;;;6.55;2.92;;;538.40;1356.80;;;;;;5086229;28;20476;-80
2022/05/03 12:20:59;;;;;;;6.03;3.00;;;563.30;1356.80;;;;;;5093033;28;20035;-79
2022/05/03 12:23:46;;;;;;;6.78;3.35;;;563.60;1254.40;;;;;;5094701;28;20031;-80
2022/05/03 12:26:19;;;;;;;8.57;2.92;;;564.10;1228.80;;;;;;5092217;28;20523;-79
2022/05/03 12:28:47;;;;;;;5.20;2.70;;;589.10;1280.00;;;;;;5095097;28;20106;-80
2022/05/03 12:31:16;;;;;;;8.93;5.88;;;589.20;1382.40;;;;;;5095293;28;20027;-80
2022/05/03 12:33:46;;;;;;;14.63;4.38;;;589.10;1305.60;;;;;;5093412;28;20031;-79
2022/05/03 12:36:33;;;;;;;8.02;3.20;;;589.00;1305.60;;;;;;5093883;28;20035;-80
2022/05/03 12:39:19;;;;;;;5.75;3.63;;;589.10;1280.00;;;;;;5090067;28;20027;-79
2022/05/03 12:42:03;;;;;;;6.20;2.97;;;589.50;1228.80;;;;;;5090696;28;20027;-80
2022/05/03 12:44:47;;;;;;;5.85;2.72;;;589.60;1177.60;;;;;;5091183;28;20027;-79
2022/05/03 12:47:12;;;;;;;6.57;2.92;;;589.50;1228.80;;;;;;5093739;28;20028;-80
2022/05/03 12:49:38;;;;;;;5.63;2.53;;;589.50;1177.60;;;;;;5092145;28;20044;-79
2022/05/03 12:52:04;;;;;;;7.65;3.00;;;614.50;1177.60;;;;;;5093568;28;20020;-80
2022/05/03 12:54:30;;;;;;;6.28;2.67;;;614.40;1177.60;;;;;;5093274;28;20479;-80
2022/05/03 12:59:40;;;;;;;9.07;3.53;;;588.80;1254.40;;;;;;5089960;28;20048;-79
2022/05/03 13:02:07;;;;;;;7.85;3.97;;;564.10;1356.80;;;;;;5092771;28;20020;-79
2022/05/03 13:04:33;;;;;;;5.30;3.30;;;564.00;1305.60;;;;;;5092843;28;20024;-79
2022/05/03 13:07:00;;;;;;;5.03;2.72;;;588.90;1228.80;;;;;;5092645;28;20032;-80
2022/05/03 13:09:26;;;;;;;4.88;2.95;;;589.30;1177.60;;;;;;5092555;28;20035;-79
2022/05/03 13:11:52;;;;;;;8.35;2.58;;;589.70;1152.00;;;;;;5092499;28;20016;-78
2022/05/03 13:14:18;;;;;;;4.88;2.85;;;614.40;1203.20;;;;;;5091947;28;20093;-78